sensor_id;sensor_type;location;lat;lon;timestamp;pressure;altitude;pressure_sealevel;temperature;humidity
40117;BME280;25829;50.228;18.936;2023-07-20T00:00:46;97811.00;;;17.66;67.05
40117;BME280;25829;50.228;18.936;2023-07-20T00:03:47;97823.25;;;17.62;67.05
40117;BME280;25829;50.228;18.936;2023-07-20T00:06:55;97824.63;;;17.60;66.93
40117;BME280;25829;50.228;18.936;2023-07-20T00:09:55;97842.22;;;17.61;66.70
40117;BME280;25829;50.228;18.936;2023-07-20T00:12:56;97860.63;;;17.57;67.05
40117;BME280;25829;50.228;18.936;2023-07-20T00:15:57;97872.34;;;17.56;67.22
40117;BME280;25829;50.228;18.936;2023-07-20T00:18:58;97888.59;;;17.55;66.96
40117;BME280;25829;50.228;18.936;2023-07-20T00:21:58;97895.81;;;17.54;66.26
40117;BME280;25829;50.228;18.936;2023-07-20T00:24:59;97895.81;;;17.54;64.78
40117;BME280;25829;50.228;18.936;2023-07-20T00:28:00;97906.22;;;17.56;63.75
40117;BME280;25829;50.228;18.936;2023-07-20T00:31:01;97911.56;;;17.61;63.08
40117;BME280;25829;50.228;18.936;2023-07-20T00:34:04;97906.25;;;17.66;62.74
40117;BME280;25829;50.228;18.936;2023-07-20T00:37:05;97929.94;;;17.73;62.74
40117;BME280;25829;50.228;18.936;2023-07-20T00:40:06;97932.88;;;17.76;62.63
40117;BME280;25829;50.228;18.936;2023-07-20T00:43:10;97934.78;;;17.81;62.60
40117;BME280;25829;50.228;18.936;2023-07-20T00:46:11;97920.34;;;17.82;62.65
40117;BME280;25829;50.228;18.936;2023-07-20T00:49:14;97937.69;;;17.84;62.52
40117;BME280;25829;50.228;18.936;2023-07-20T00:52:15;97939.56;;;17.84;62.61
40117;BME280;25829;50.228;18.936;2023-07-20T00:55:18;97940.91;;;17.81;62.61
40117;BME280;25829;50.228;18.936;2023-07-20T00:58:19;97922.50;;;17.80;62.99
40117;BME280;25829;50.228;18.936;2023-07-20T01:01:22;97920.88;;;17.79;63.22
40117;BME280;25829;50.228;18.936;2023-07-20T01:04:22;97909.69;;;17.77;63.51
40117;BME280;25829;50.228;18.936;2023-07-20T01:07:27;97902.75;;;17.76;63.60
40117;BME280;25829;50.228;18.936;2023-07-20T01:10:46;97877.94;;;17.75;63.81
40117;BME280;25829;50.228;18.936;2023-07-20T01:13:50;97861.69;;;17.61;64.15
40117;BME280;25829;50.228;18.936;2023-07-20T01:16:51;97846.22;;;17.48;64.60
40117;BME280;25829;50.228;18.936;2023-07-20T01:19:54;97865.69;;;17.43;64.62
40117;BME280;25829;50.228;18.936;2023-07-20T01:33:39;97875.03;;;17.46;65.41
40117;BME280;25829;50.228;18.936;2023-07-20T01:36:43;97879.03;;;17.49;65.35
40117;BME280;25829;50.228;18.936;2023-07-20T01:39:44;97864.88;;;17.48;64.97
40117;BME280;25829;50.228;18.936;2023-07-20T01:42:46;97854.72;;;17.45;64.74
40117;BME280;25829;50.228;18.936;2023-07-20T01:45:47;97865.16;;;17.47;64.90
40117;BME280;25829;50.228;18.936;2023-07-20T01:48:48;97858.75;;;17.48;65.15
40117;BME280;25829;50.228;18.936;2023-07-20T01:51:48;97877.16;;;17.49;65.10
40117;BME280;25829;50.228;18.936;2023-07-20T01:54:50;97886.47;;;17.52;65.31
40117;BME280;25829;50.228;18.936;2023-07-20T01:57:52;97899.56;;;17.53;65.24
40117;BME280;25829;50.228;18.936;2023-07-20T02:00:53;97895.81;;;17.54;65.59
40117;BME280;25829;50.228;18.936;2023-07-20T02:03:54;97905.13;;;17.52;65.75
40117;BME280;25829;50.228;18.936;2023-07-20T02:06:55;97893.16;;;17.49;65.68
40117;BME280;25829;50.228;18.936;2023-07-20T02:09:57;97887.28;;;17.42;65.91
40117;BME280;25829;50.228;18.936;2023-07-20T02:12:58;97902.22;;;17.33;65.89
40117;BME280;25829;50.228;18.936;2023-07-20T02:15:59;97904.84;;;17.28;65.72
40117;BME280;25829;50.228;18.936;2023-07-20T02:19:00;97912.06;;;17.27;65.36
40117;BME280;25829;50.228;18.936;2023-07-20T02:22:00;97918.19;;;17.28;65.21
40117;BME280;25829;50.228;18.936;2023-07-20T02:25:01;97929.41;;;17.25;65.34
40117;BME280;25829;50.228;18.936;2023-07-20T02:28:03;97938.72;;;17.22;65.04
40117;BME280;25829;50.228;18.936;2023-07-20T02:31:04;97918.72;;;17.19;65.07
40117;BME280;25829;50.228;18.936;2023-07-20T02:34:08;97907.53;;;17.17;65.45
40117;BME280;25829;50.228;18.936;2023-07-20T02:37:09;97924.84;;;17.15;65.78
40117;BME280;25829;50.228;18.936;2023-07-20T02:40:11;97916.78;;;17.10;66.07
40117;BME280;25829;50.228;18.936;2023-07-20T02:43:12;97919.97;;;17.07;66.49
40117;BME280;25829;50.228;18.936;2023-07-20T02:46:12;97920.25;;;17.00;66.63
40117;BME280;25829;50.228;18.936;2023-07-20T02:49:13;97923.94;;;16.94;66.64
40117;BME280;25829;50.228;18.936;2023-07-20T02:52:14;97927.13;;;16.91;66.63
40117;BME280;25829;50.228;18.936;2023-07-20T02:55:15;97923.91;;;16.84;66.68
40117;BME280;25829;50.228;18.936;2023-07-20T02:58:16;97926.81;;;16.77;66.99
40117;BME280;25829;50.228;18.936;2023-07-20T03:01:17;97928.13;;;16.69;66.98
40117;BME280;25829;50.228;18.936;2023-07-20T03:04:18;97926.22;;;16.60;66.56
40117;BME280;25829;50.228;18.936;2023-07-20T03:07:18;97937.88;;;16.48;66.41
40117;BME280;25829;50.228;18.936;2023-07-20T03:10:19;97943.72;;;16.45;66.51
40117;BME280;25829;50.228;18.936;2023-07-20T03:13:20;97951.66;;;16.40;66.32
40117;BME280;25829;50.228;18.936;2023-07-20T03:16:21;97956.69;;;16.37;66.45
40117;BME280;25829;50.228;18.936;2023-07-20T03:19:22;97973.97;;;16.29;66.40
40117;BME280;25829;50.228;18.936;2023-07-20T03:22:23;97965.97;;;16.24;66.85
40117;BME280;25829;50.228;18.936;2023-07-20T03:25:24;97971.72;;;16.16;66.50
40117;BME280;25829;50.228;18.936;2023-07-20T03:28:25;97977.03;;;16.16;66.60
40117;BME280;25829;50.228;18.936;2023-07-20T03:31:26;97985.00;;;16.16;66.75
40117;BME280;25829;50.228;18.936;2023-07-20T03:34:27;97980.75;;;16.15;66.79
40117;BME280;25829;50.228;18.936;2023-07-20T03:37:28;97991.13;;;16.16;66.79
40117;BME280;25829;50.228;18.936;2023-07-20T03:40:28;97993.88;;;16.21;66.68
40117;BME280;25829;50.228;18.936;2023-07-20T03:43:29;97992.25;;;16.20;66.69
40117;BME280;25829;50.228;18.936;2023-07-20T03:46:30;97969.09;;;16.21;67.41
40117;BME280;25829;50.228;18.936;2023-07-20T03:49:31;97974.63;;;16.14;66.92
40117;BME280;25829;50.228;18.936;2023-07-20T03:52:32;97987.88;;;16.09;66.72
40117;BME280;25829;50.228;18.936;2023-07-20T03:55:33;97991.31;;;16.04;67.10
40117;BME280;25829;50.228;18.936;2023-07-20T03:58:34;97971.09;;;16.03;67.76
40117;BME280;25829;50.228;18.936;2023-07-20T04:01:35;97971.81;;;15.94;67.41
40117;BME280;25829;50.228;18.936;2023-07-20T04:04:37;97979.25;;;15.92;68.53
40117;BME280;25829;50.228;18.936;2023-07-20T04:07:38;97980.81;;;15.88;68.12
40117;BME280;25829;50.228;18.936;2023-07-20T04:10:39;98018.31;;;15.86;67.64
40117;BME280;25829;50.228;18.936;2023-07-20T04:13:40;98018.34;;;15.91;68.03
40117;BME280;25829;50.228;18.936;2023-07-20T04:16:40;98002.19;;;15.98;67.70
40117;BME280;25829;50.228;18.936;2023-07-20T04:19:41;97980.41;;;16.06;67.91
40117;BME280;25829;50.228;18.936;2023-07-20T04:22:43;97987.94;;;16.14;67.43
40117;BME280;25829;50.228;18.936;2023-07-20T04:25:47;97997.91;;;16.24;67.17
40117;BME280;25829;50.228;18.936;2023-07-20T04:28:48;97998.97;;;16.28;66.95
40117;BME280;25829;50.228;18.936;2023-07-20T04:32:01;97982.25;;;16.33;66.85
40117;BME280;25829;50.228;18.936;2023-07-20T04:35:06;97986.56;;;16.44;67.20
40117;BME280;25829;50.228;18.936;2023-07-20T04:38:14;97990.63;;;16.57;67.00
40117;BME280;25829;50.228;18.936;2023-07-20T04:41:19;97987.47;;;16.65;66.48
40117;BME280;25829;50.228;18.936;2023-07-20T04:44:22;97992.06;;;16.74;66.54
40117;BME280;25829;50.228;18.936;2023-07-20T04:47:23;97997.44;;;16.80;66.48
40117;BME280;25829;50.228;18.936;2023-07-20T04:50:25;98005.69;;;16.83;66.60
40117;BME280;25829;50.228;18.936;2023-07-20T04:53:26;98019.03;;;16.88;66.73
40117;BME280;25829;50.228;18.936;2023-07-20T04:56:28;98020.66;;;16.94;66.89
40117;BME280;25829;50.228;18.936;2023-07-20T04:59:32;98018.00;;;16.99;66.65
40117;BME280;25829;50.228;18.936;2023-07-20T05:02:33;98011.09;;;16.98;66.84
40117;BME280;25829;50.228;18.936;2023-07-20T05:05:35;98008.38;;;16.88;67.51
40117;BME280;25829;50.228;18.936;2023-07-20T05:08:35;98018.69;;;16.74;68.07
40117;BME280;25829;50.228;18.936;2023-07-20T05:11:36;98025.88;;;16.69;68.35
40117;BME280;25829;50.228;18.936;2023-07-20T05:14:38;98034.94;;;16.73;68.40
40117;BME280;25829;50.228;18.936;2023-07-20T05:17:38;98034.69;;;16.74;68.62
40117;BME280;25829;50.228;18.936;2023-07-20T05:20:40;98037.84;;;16.71;68.93
40117;BME280;25829;50.228;18.936;2023-07-20T05:23:41;98052.25;;;16.70;69.09
40117;BME280;25829;50.228;18.936;2023-07-20T05:26:42;98056.50;;;16.71;69.17
40117;BME280;25829;50.228;18.936;2023-07-20T05:29:46;98044.03;;;16.77;69.41
40117;BME280;25829;50.228;18.936;2023-07-20T05:32:46;98053.38;;;16.85;69.51
40117;BME280;25829;50.228;18.936;2023-07-20T05:35:51;98046.22;;;16.90;69.41
40117;BME280;25829;50.228;18.936;2023-07-20T05:38:52;98049.47;;;16.97;69.44
40117;BME280;25829;50.228;18.936;2023-07-20T05:41:53;98051.34;;;17.02;69.56
40117;BME280;25829;50.228;18.936;2023-07-20T05:44:54;98037.50;;;17.00;69.17
40117;BME280;25829;50.228;18.936;2023-07-20T05:47:55;98050.53;;;17.02;69.15
40117;BME280;25829;50.228;18.936;2023-07-20T05:50:56;98053.50;;;17.05;69.10
40117;BME280;25829;50.228;18.936;2023-07-20T05:53:57;98062.03;;;17.07;69.12
40117;BME280;25829;50.228;18.936;2023-07-20T05:56:57;98052.69;;;17.10;69.19
40117;BME280;25829;50.228;18.936;2023-07-20T06:00:01;98051.91;;;17.09;69.04
40117;BME280;25829;50.228;18.936;2023-07-20T06:03:12;98055.13;;;17.11;68.64
40117;BME280;25829;50.228;18.936;2023-07-20T06:06:18;98061.81;;;17.14;68.59
40117;BME280;25829;50.228;18.936;2023-07-20T06:09:30;98049.84;;;17.16;68.64
40117;BME280;25829;50.228;18.936;2023-07-20T06:12:31;98061.56;;;17.15;68.19
40117;BME280;25829;50.228;18.936;2023-07-20T06:15:33;98055.72;;;17.24;68.13
40117;BME280;25829;50.228;18.936;2023-07-20T06:18:37;98065.41;;;17.40;67.84
40117;BME280;25829;50.228;18.936;2023-07-20T06:21:39;98054.47;;;17.47;67.46
40117;BME280;25829;50.228;18.936;2023-07-20T06:24:40;98055.84;;;17.54;67.14
40117;BME280;25829;50.228;18.936;2023-07-20T06:27:42;98048.94;;;17.68;67.34
40117;BME280;25829;50.228;18.936;2023-07-20T06:30:43;98054.84;;;17.91;67.37
40117;BME280;25829;50.228;18.936;2023-07-20T06:33:47;98050.34;;;18.07;66.30
40117;BME280;25829;50.228;18.936;2023-07-20T06:36:47;98053.28;;;18.10;65.86
40117;BME280;25829;50.228;18.936;2023-07-20T06:39:48;98062.91;;;18.22;66.10
40117;BME280;25829;50.228;18.936;2023-07-20T06:42:49;98057.28;;;18.38;65.93
40117;BME280;25829;50.228;18.936;2023-07-20T06:45:56;98052.19;;;18.57;65.42
40117;BME280;25829;50.228;18.936;2023-07-20T06:48:56;98053.78;;;18.69;64.32
40117;BME280;25829;50.228;18.936;2023-07-20T06:51:57;98060.19;;;18.73;64.03
40117;BME280;25829;50.228;18.936;2023-07-20T06:54:58;98061.78;;;18.79;63.84
40117;BME280;25829;50.228;18.936;2023-07-20T06:57:59;98059.94;;;18.84;63.66
40117;BME280;25829;50.228;18.936;2023-07-20T07:00:59;98060.16;;;18.93;63.35
40117;BME280;25829;50.228;18.936;2023-07-20T07:04:03;98060.69;;;19.00;63.01
40117;BME280;25829;50.228;18.936;2023-07-20T07:07:05;98063.31;;;19.10;62.34
40117;BME280;25829;50.228;18.936;2023-07-20T07:10:07;98056.59;;;19.18;61.67
40117;BME280;25829;50.228;18.936;2023-07-20T07:13:08;98055.50;;;19.29;61.15
40117;BME280;25829;50.228;18.936;2023-07-20T07:25:00;98070.59;;;19.59;60.38
40117;BME280;25829;50.228;18.936;2023-07-20T07:28:03;98064.97;;;19.71;59.65
40117;BME280;25829;50.228;18.936;2023-07-20T07:31:09;98069.66;;;19.90;59.15
40117;BME280;25829;50.228;18.936;2023-07-20T07:34:10;98072.03;;;19.96;59.06
40117;BME280;25829;50.228;18.936;2023-07-20T07:37:11;98075.00;;;19.95;59.04
40117;BME280;25829;50.228;18.936;2023-07-20T07:40:12;98073.84;;;20.01;58.66
40117;BME280;25829;50.228;18.936;2023-07-20T07:43:13;98078.41;;;20.05;57.80
40117;BME280;25829;50.228;18.936;2023-07-20T07:46:14;98077.78;;;20.14;57.59
40117;BME280;25829;50.228;18.936;2023-07-20T07:49:30;98081.97;;;20.25;57.04
40117;BME280;25829;50.228;18.936;2023-07-20T07:52:34;98082.75;;;20.31;57.00
40117;BME280;25829;50.228;18.936;2023-07-20T07:55:35;98082.44;;;20.37;56.63
40117;BME280;25829;50.228;18.936;2023-07-20T07:58:39;98099.00;;;20.39;56.84
40117;BME280;25829;50.228;18.936;2023-07-20T08:01:40;98083.00;;;20.34;56.28
40117;BME280;25829;50.228;18.936;2023-07-20T08:04:41;98083.84;;;20.29;56.72
40117;BME280;25829;50.228;18.936;2023-07-20T08:07:42;98093.47;;;20.31;56.96
40117;BME280;25829;50.228;18.936;2023-07-20T08:10:43;98091.03;;;20.34;57.06
40117;BME280;25829;50.228;18.936;2023-07-20T08:13:44;98094.25;;;20.36;57.17
40117;BME280;25829;50.228;18.936;2023-07-20T08:16:45;98094.19;;;20.41;57.28
40117;BME280;25829;50.228;18.936;2023-07-20T08:19:46;98094.06;;;20.57;57.12
40117;BME280;25829;50.228;18.936;2023-07-20T08:22:47;98094.19;;;20.75;56.74
40117;BME280;25829;50.228;18.936;2023-07-20T08:25:48;98087.94;;;20.85;56.16
40117;BME280;25829;50.228;18.936;2023-07-20T08:28:49;98097.00;;;20.89;56.14
40117;BME280;25829;50.228;18.936;2023-07-20T08:31:52;98094.13;;;20.81;55.78
40117;BME280;25829;50.228;18.936;2023-07-20T08:34:59;98099.88;;;20.69;55.56
40117;BME280;25829;50.228;18.936;2023-07-20T08:38:02;98100.91;;;20.73;56.11
40117;BME280;25829;50.228;18.936;2023-07-20T08:41:05;98095.13;;;20.90;56.78
40117;BME280;25829;50.228;18.936;2023-07-20T08:44:10;98102.00;;;21.25;56.26
40117;BME280;25829;50.228;18.936;2023-07-20T08:47:12;98102.94;;;21.77;55.91
40117;BME280;25829;50.228;18.936;2023-07-20T08:50:14;98104.19;;;22.23;54.96
40117;BME280;25829;50.228;18.936;2023-07-20T08:53:20;98104.72;;;22.90;54.43
40117;BME280;25829;50.228;18.936;2023-07-20T08:56:24;98097.06;;;23.66;53.22
40117;BME280;25829;50.228;18.936;2023-07-20T08:59:25;98098.13;;;24.38;52.48
40117;BME280;25829;50.228;18.936;2023-07-20T09:03:04;98095.53;;;25.09;48.00
40117;BME280;25829;50.228;18.936;2023-07-20T09:06:11;98108.25;;;25.08;49.84
40117;BME280;25829;50.228;18.936;2023-07-20T09:09:12;98108.47;;;24.89;49.78
40117;BME280;25829;50.228;18.936;2023-07-20T09:12:16;98107.72;;;24.66;49.63
40117;BME280;25829;50.228;18.936;2023-07-20T09:15:18;98108.00;;;24.20;49.77
40117;BME280;25829;50.228;18.936;2023-07-20T09:18:24;98109.03;;;24.10;50.53
40117;BME280;25829;50.228;18.936;2023-07-20T09:21:31;98109.75;;;24.02;50.15
40117;BME280;25829;50.228;18.936;2023-07-20T09:24:32;98105.84;;;24.08;51.01
40117;BME280;25829;50.228;18.936;2023-07-20T09:27:40;98107.66;;;24.35;50.23
40117;BME280;25829;50.228;18.936;2023-07-20T09:30:41;98097.78;;;24.53;50.82
40117;BME280;25829;50.228;18.936;2023-07-20T09:33:43;98094.06;;;25.03;50.49
40117;BME280;25829;50.228;18.936;2023-07-20T09:36:51;98082.19;;;25.61;48.67
40117;BME280;25829;50.228;18.936;2023-07-20T09:40:06;98084.59;;;25.71;47.48
40117;BME280;25829;50.228;18.936;2023-07-20T09:43:20;98092.78;;;25.31;48.59
40117;BME280;25829;50.228;18.936;2023-07-20T09:46:21;98101.31;;;24.85;48.62
40117;BME280;25829;50.228;18.936;2023-07-20T09:49:25;98108.81;;;24.43;47.83
40117;BME280;25829;50.228;18.936;2023-07-20T09:52:28;98102.84;;;23.96;49.46
40117;BME280;25829;50.228;18.936;2023-07-20T09:55:30;98108.56;;;24.08;50.66
40117;BME280;25829;50.228;18.936;2023-07-20T09:58:31;98097.66;;;24.36;49.65
40117;BME280;25829;50.228;18.936;2023-07-20T10:01:34;98101.44;;;24.57;50.21
40117;BME280;25829;50.228;18.936;2023-07-20T10:04:36;98110.28;;;24.71;50.19
40117;BME280;25829;50.228;18.936;2023-07-20T10:07:47;98091.31;;;24.85;49.86
40117;BME280;25829;50.228;18.936;2023-07-20T10:10:48;98103.03;;;24.81;50.12
40117;BME280;25829;50.228;18.936;2023-07-20T10:13:51;98098.88;;;24.74;49.76
40117;BME280;25829;50.228;18.936;2023-07-20T10:17:01;98096.03;;;24.57;48.58
40117;BME280;25829;50.228;18.936;2023-07-20T10:20:07;98109.78;;;24.47;49.63
40117;BME280;25829;50.228;18.936;2023-07-20T10:23:11;98104.78;;;24.32;48.69
40117;BME280;25829;50.228;18.936;2023-07-20T10:26:13;98098.31;;;24.19;49.21
40117;BME280;25829;50.228;18.936;2023-07-20T10:29:14;98099.59;;;23.99;48.25
40117;BME280;25829;50.228;18.936;2023-07-20T10:32:15;98102.00;;;23.87;48.07
40117;BME280;25829;50.228;18.936;2023-07-20T10:35:17;98102.44;;;23.66;48.59
40117;BME280;25829;50.228;18.936;2023-07-20T10:38:40;98097.50;;;23.46;47.55
40117;BME280;25829;50.228;18.936;2023-07-20T10:41:41;98101.69;;;23.38;48.37
40117;BME280;25829;50.228;18.936;2023-07-20T10:44:44;98094.88;;;23.41;48.58
40117;BME280;25829;50.228;18.936;2023-07-20T10:47:46;98086.34;;;23.39;48.39
40117;BME280;25829;50.228;18.936;2023-07-20T10:51:13;98086.41;;;23.47;46.96
40117;BME280;25829;50.228;18.936;2023-07-20T10:57:31;98080.41;;;23.50;47.22
40117;BME280;25829;50.228;18.936;2023-07-20T11:00:32;98072.84;;;23.52;46.33
40117;BME280;25829;50.228;18.936;2023-07-20T11:03:35;98073.75;;;23.48;46.09
40117;BME280;25829;50.228;18.936;2023-07-20T11:06:42;98069.97;;;23.49;45.56
40117;BME280;25829;50.228;18.936;2023-07-20T11:09:46;98074.44;;;23.53;45.70
40117;BME280;25829;50.228;18.936;2023-07-20T11:16:45;98063.47;;;23.50;45.55
40117;BME280;25829;50.228;18.936;2023-07-20T11:19:48;98071.75;;;23.53;46.03
40117;BME280;25829;50.228;18.936;2023-07-20T11:22:54;98067.34;;;23.57;45.61
40117;BME280;25829;50.228;18.936;2023-07-20T11:25:55;98063.25;;;23.60;44.83
40117;BME280;25829;50.228;18.936;2023-07-20T11:28:56;98063.59;;;23.45;45.06
40117;BME280;25829;50.228;18.936;2023-07-20T11:31:58;98061.59;;;23.37;45.18
40117;BME280;25829;50.228;18.936;2023-07-20T11:34:59;98064.28;;;23.37;45.29
40117;BME280;25829;50.228;18.936;2023-07-20T11:41:25;98059.00;;;23.45;44.84
40117;BME280;25829;50.228;18.936;2023-07-20T11:44:38;98061.56;;;23.50;45.30
40117;BME280;25829;50.228;18.936;2023-07-20T11:47:42;98053.22;;;23.52;45.09
40117;BME280;25829;50.228;18.936;2023-07-20T11:50:43;98045.19;;;23.61;44.86
40117;BME280;25829;50.228;18.936;2023-07-20T11:53:44;98051.56;;;23.65;45.15
40117;BME280;25829;50.228;18.936;2023-07-20T11:56:47;98050.50;;;23.66;45.12
40117;BME280;25829;50.228;18.936;2023-07-20T12:00:03;98041.81;;;23.69;44.46
40117;BME280;25829;50.228;18.936;2023-07-20T12:03:17;98043.88;;;23.72;45.37
40117;BME280;25829;50.228;18.936;2023-07-20T12:06:28;98040.69;;;23.70;45.04
40117;BME280;25829;50.228;18.936;2023-07-20T12:09:29;98036.53;;;23.64;45.12
40117;BME280;25829;50.228;18.936;2023-07-20T12:12:44;98047.41;;;23.58;44.21
40117;BME280;25829;50.228;18.936;2023-07-20T12:19:27;98029.81;;;23.39;43.93
40117;BME280;25829;50.228;18.936;2023-07-20T12:43:43;98034.78;;;22.90;45.26
40117;BME280;25829;50.228;18.936;2023-07-20T12:46:47;98030.09;;;22.96;45.04
40117;BME280;25829;50.228;18.936;2023-07-20T12:50:10;98033.22;;;23.03;45.30
40117;BME280;25829;50.228;18.936;2023-07-20T12:53:12;98038.59;;;23.03;44.47
40117;BME280;25829;50.228;18.936;2023-07-20T12:56:19;98034.09;;;22.98;44.01
40117;BME280;25829;50.228;18.936;2023-07-20T12:59:23;98032.31;;;22.94;43.79
40117;BME280;25829;50.228;18.936;2023-07-20T13:02:26;98028.63;;;22.90;44.47
40117;BME280;25829;50.228;18.936;2023-07-20T13:05:34;98020.75;;;22.93;43.88
40117;BME280;25829;50.228;18.936;2023-07-20T13:08:40;98022.03;;;22.96;44.00
40117;BME280;25829;50.228;18.936;2023-07-20T13:11:41;98026.81;;;22.99;43.78
40117;BME280;25829;50.228;18.936;2023-07-20T13:14:47;98019.75;;;23.03;43.52
40117;BME280;25829;50.228;18.936;2023-07-20T13:17:48;98021.53;;;23.07;44.00
40117;BME280;25829;50.228;18.936;2023-07-20T13:20:56;98020.53;;;23.17;44.13
40117;BME280;25829;50.228;18.936;2023-07-20T13:23:59;98016.94;;;23.22;44.07
40117;BME280;25829;50.228;18.936;2023-07-20T13:27:00;98025.53;;;23.24;44.07
40117;BME280;25829;50.228;18.936;2023-07-20T13:30:07;98010.16;;;23.24;42.69
40117;BME280;25829;50.228;18.936;2023-07-20T13:41:37;98006.69;;;23.24;43.04
40117;BME280;25829;50.228;18.936;2023-07-20T13:44:38;98000.47;;;23.23;44.18
40117;BME280;25829;50.228;18.936;2023-07-20T13:47:42;97997.91;;;23.18;43.72
40117;BME280;25829;50.228;18.936;2023-07-20T13:50:42;98001.59;;;23.08;44.02
40117;BME280;25829;50.228;18.936;2023-07-20T13:53:51;97996.94;;;23.00;43.95
40117;BME280;25829;50.228;18.936;2023-07-20T13:56:52;98005.22;;;22.90;43.75
40117;BME280;25829;50.228;18.936;2023-07-20T13:59:53;98013.66;;;22.83;43.77
40117;BME280;25829;50.228;18.936;2023-07-20T14:02:54;98021.53;;;22.80;44.16
40117;BME280;25829;50.228;18.936;2023-07-20T14:06:04;98036.47;;;22.72;43.76
40117;BME280;25829;50.228;18.936;2023-07-20T14:09:05;98056.75;;;22.64;44.34
40117;BME280;25829;50.228;18.936;2023-07-20T14:12:20;98073.88;;;22.55;44.11
40117;BME280;25829;50.228;18.936;2023-07-20T14:15:21;98086.53;;;22.35;45.83
40117;BME280;25829;50.228;18.936;2023-07-20T14:18:22;98043.66;;;22.11;48.97
40117;BME280;25829;50.228;18.936;2023-07-20T14:21:23;98038.88;;;21.89;50.81
40117;BME280;25829;50.228;18.936;2023-07-20T14:24:24;98034.81;;;21.73;52.36
40117;BME280;25829;50.228;18.936;2023-07-20T14:27:24;98042.22;;;21.62;53.66
40117;BME280;25829;50.228;18.936;2023-07-20T14:30:25;98060.34;;;21.52;54.16
40117;BME280;25829;50.228;18.936;2023-07-20T14:33:26;98069.34;;;21.42;55.49
40117;BME280;25829;50.228;18.936;2023-07-20T14:36:27;98066.84;;;21.27;55.74
40117;BME280;25829;50.228;18.936;2023-07-20T14:39:29;98072.34;;;21.11;56.38
40117;BME280;25829;50.228;18.936;2023-07-20T14:42:30;98083.81;;;20.93;56.73
40117;BME280;25829;50.228;18.936;2023-07-20T14:45:40;98081.56;;;20.76;57.83
40117;BME280;25829;50.228;18.936;2023-07-20T14:48:44;98094.38;;;20.55;57.93
40117;BME280;25829;50.228;18.936;2023-07-20T14:51:52;98105.59;;;20.23;58.00
40117;BME280;25829;50.228;18.936;2023-07-20T14:54:53;98096.13;;;19.96;58.04
40117;BME280;25829;50.228;18.936;2023-07-20T14:57:54;98088.25;;;19.66;58.16
40117;BME280;25829;50.228;18.936;2023-07-20T15:00:55;98074.69;;;19.42;58.68
40117;BME280;25829;50.228;18.936;2023-07-20T15:03:56;98088.41;;;19.25;58.95
40117;BME280;25829;50.228;18.936;2023-07-20T15:06:57;98093.00;;;19.19;59.43
40117;BME280;25829;50.228;18.936;2023-07-20T15:09:57;98083.34;;;19.18;59.68
40117;BME280;25829;50.228;18.936;2023-07-20T15:13:04;98079.63;;;19.19;59.63
40117;BME280;25829;50.228;18.936;2023-07-20T15:16:05;98072.34;;;19.25;59.71
40117;BME280;25829;50.228;18.936;2023-07-20T15:19:09;98080.34;;;19.35;59.24
40117;BME280;25829;50.228;18.936;2023-07-20T15:22:09;98085.41;;;19.42;59.14
40117;BME280;25829;50.228;18.936;2023-07-20T15:25:13;98086.19;;;19.47;59.10
40117;BME280;25829;50.228;18.936;2023-07-20T15:28:17;98082.13;;;19.55;58.85
40117;BME280;25829;50.228;18.936;2023-07-20T15:31:42;98082.63;;;19.62;58.67
40117;BME280;25829;50.228;18.936;2023-07-20T15:34:43;98082.84;;;19.76;57.99
40117;BME280;25829;50.228;18.936;2023-07-20T15:37:44;98084.91;;;19.89;57.87
40117;BME280;25829;50.228;18.936;2023-07-20T15:40:54;98089.38;;;20.04;57.36
40117;BME280;25829;50.228;18.936;2023-07-20T15:43:57;98084.78;;;20.10;56.53
40117;BME280;25829;50.228;18.936;2023-07-20T15:46:58;98087.97;;;20.12;56.38
40117;BME280;25829;50.228;18.936;2023-07-20T15:49:59;98088.50;;;20.14;56.29
40117;BME280;25829;50.228;18.936;2023-07-20T15:53:04;98082.31;;;20.18;56.00
40117;BME280;25829;50.228;18.936;2023-07-20T15:59:12;98091.34;;;20.27;55.81
40117;BME280;25829;50.228;18.936;2023-07-20T16:02:12;98087.81;;;20.32;55.63
40117;BME280;25829;50.228;18.936;2023-07-20T16:05:13;98089.69;;;20.37;55.90
40117;BME280;25829;50.228;18.936;2023-07-20T16:08:14;98090.72;;;20.41;55.64
40117;BME280;25829;50.228;18.936;2023-07-20T16:11:19;98088.28;;;20.44;55.19
40117;BME280;25829;50.228;18.936;2023-07-20T16:14:24;98082.63;;;20.51;55.07
40117;BME280;25829;50.228;18.936;2023-07-20T16:17:25;98090.09;;;20.54;55.11
40117;BME280;25829;50.228;18.936;2023-07-20T16:20:35;98080.41;;;20.58;55.20
40117;BME280;25829;50.228;18.936;2023-07-20T16:23:38;98089.25;;;20.59;53.83
40117;BME280;25829;50.228;18.936;2023-07-20T16:34:56;98089.16;;;20.69;52.91
40117;BME280;25829;50.228;18.936;2023-07-20T16:37:56;98095.31;;;20.69;52.64
40117;BME280;25829;50.228;18.936;2023-07-20T16:41:05;98101.19;;;20.71;52.55
40117;BME280;25829;50.228;18.936;2023-07-20T16:44:07;98102.78;;;20.72;52.36
40117;BME280;25829;50.228;18.936;2023-07-20T16:47:20;98103.31;;;20.74;51.96
40117;BME280;25829;50.228;18.936;2023-07-20T16:50:27;98100.63;;;20.74;51.86
40117;BME280;25829;50.228;18.936;2023-07-20T16:53:38;98100.03;;;20.77;51.51
40117;BME280;25829;50.228;18.936;2023-07-20T16:56:39;98100.88;;;20.78;51.26
40117;BME280;25829;50.228;18.936;2023-07-20T16:59:58;98103.56;;;20.78;50.93
40117;BME280;25829;50.228;18.936;2023-07-20T17:02:59;98109.47;;;20.75;50.80
40117;BME280;25829;50.228;18.936;2023-07-20T17:06:04;98115.63;;;20.75;50.71
40117;BME280;25829;50.228;18.936;2023-07-20T17:09:06;98108.38;;;20.76;50.91
40117;BME280;25829;50.228;18.936;2023-07-20T17:12:07;98116.41;;;20.76;50.67